createdAt,value
2023-02-08T00:01:20.628Z,12.63
2023-02-08T00:03:50.600Z,14.33
2023-02-08T00:06:20.558Z,14.47
2023-02-08T00:08:47.751Z,14.66
2023-02-08T00:11:14.886Z,14.00
2023-02-08T00:13:42.938Z,14.66
2023-02-08T00:16:12.830Z,15.64
2023-02-08T00:18:40.726Z,15.36
2023-02-08T00:21:14.397Z,14.60
2023-02-08T00:23:42.520Z,14.77
2023-02-08T00:26:10.294Z,15.43
2023-02-08T00:28:37.801Z,15.02
2023-02-08T00:31:06.070Z,15.38
2023-02-08T00:33:35.802Z,14.90
2023-02-08T00:36:07.654Z,13.81
2023-02-08T00:38:37.811Z,15.21
2023-02-08T00:41:06.237Z,15.20
2023-02-08T00:43:34.022Z,14.44
2023-02-08T00:46:01.706Z,14.59
2023-02-08T00:48:29.028Z,14.62
2023-02-08T00:51:13.639Z,15.19
2023-02-08T00:53:45.868Z,15.49
2023-02-08T00:56:14.506Z,15.44
2023-02-08T00:58:42.604Z,15.54
2023-02-08T01:01:13.794Z,14.30
2023-02-08T01:03:45.158Z,13.80
2023-02-08T01:06:16.945Z,14.88
2023-02-08T01:08:44.498Z,14.31
2023-02-08T01:11:22.886Z,14.50
2023-02-08T01:13:50.756Z,15.00
2023-02-08T01:16:22.174Z,13.46
2023-02-08T01:18:53.418Z,14.93
2023-02-08T01:21:24.521Z,14.61
2023-02-08T01:23:52.564Z,13.96
2023-02-08T01:26:21.764Z,15.43
2023-02-08T01:28:49.639Z,15.40
2023-02-08T01:31:29.143Z,14.76
2023-02-08T01:34:00.042Z,15.39
2023-02-08T01:36:29.456Z,14.15
2023-02-08T01:38:56.653Z,14.32
2023-02-08T01:41:28.580Z,14.53
2023-02-08T01:44:13.512Z,14.26
2023-02-08T01:46:46.279Z,14.06
2023-02-08T01:49:14.265Z,14.57
2023-02-08T01:52:03.691Z,14.73
2023-02-08T01:54:42.489Z,13.64
2023-02-08T01:57:10.579Z,12.19
2023-02-08T01:59:48.283Z,12.68
2023-02-08T02:02:19.428Z,14.45
2023-02-08T02:04:49.331Z,13.37
2023-02-08T02:07:19.241Z,13.51
2023-02-08T02:10:09.110Z,12.29
2023-02-08T02:12:42.078Z,13.22
2023-02-08T02:15:10.385Z,12.11
2023-02-08T02:17:39.346Z,13.42
2023-02-08T02:20:23.209Z,13.02
2023-02-08T02:23:46.754Z,13.22
2023-02-08T02:26:51.931Z,13.60
2023-02-08T02:30:00.511Z,13.16
2023-02-08T02:33:08.076Z,12.11
2023-02-08T02:36:24.440Z,12.29
2023-02-08T02:39:17.789Z,12.08
2023-02-08T02:42:25.932Z,12.75
2023-02-08T02:44:59.173Z,11.73
2023-02-08T02:48:01.165Z,11.90
2023-02-08T02:50:33.567Z,13.28
2023-02-08T02:53:37.084Z,11.52
2023-02-08T02:56:11.304Z,13.55
2023-02-08T02:58:40.194Z,12.41
2023-02-08T03:01:10.017Z,14.04
2023-02-08T03:03:37.161Z,13.72
2023-02-08T03:06:15.274Z,12.06
2023-02-08T03:09:22.524Z,13.48
2023-02-08T03:12:11.513Z,12.10
2023-02-08T03:15:28.750Z,11.46
2023-02-08T03:18:06.424Z,10.49
2023-02-08T03:20:45.005Z,11.89
2023-02-08T03:24:00.551Z,12.08
2023-02-08T03:26:42.793Z,12.24
2023-02-08T03:29:16.323Z,12.00
2023-02-08T03:31:49.591Z,11.29
2023-02-08T03:34:54.708Z,12.51
2023-02-08T03:37:30.949Z,12.04
2023-02-08T03:40:14.243Z,13.27
2023-02-08T03:42:42.085Z,11.57
2023-02-08T03:45:32.276Z,12.47
2023-02-08T03:48:03.969Z,13.09
2023-02-08T03:50:36.395Z,13.04
2023-02-08T03:53:05.868Z,12.12
2023-02-08T03:55:37.835Z,11.55
2023-02-08T03:58:46.262Z,12.33
2023-02-08T04:01:25.353Z,11.14
2023-02-08T04:03:54.060Z,11.06
2023-02-08T04:06:23.157Z,12.49
2023-02-08T04:08:50.692Z,12.88
2023-02-08T04:11:17.944Z,12.73
2023-02-08T04:13:45.093Z,12.49
2023-02-08T04:16:15.302Z,12.05
2023-02-08T04:18:42.520Z,12.71
2023-02-08T04:21:09.737Z,12.63
2023-02-08T04:23:36.874Z,10.38
2023-02-08T04:26:04.248Z,11.61
2023-02-08T04:28:31.748Z,10.27
2023-02-08T04:30:59.099Z,9.09
2023-02-08T04:33:26.592Z,10.50
2023-02-08T04:35:53.735Z,10.58
2023-02-08T04:38:21.004Z,9.42
2023-02-08T04:40:48.118Z,10.85
2023-02-08T04:43:15.389Z,9.86
2023-02-08T04:45:42.634Z,10.01
2023-02-08T04:48:11.906Z,9.50
2023-02-08T04:50:39.798Z,9.11
2023-02-08T04:53:07.255Z,8.63
2023-02-08T04:55:35.229Z,11.21
2023-02-08T04:58:02.586Z,10.08
2023-02-08T05:00:30.162Z,11.20
2023-02-08T05:02:59.951Z,9.74
2023-02-08T05:05:28.509Z,10.89
2023-02-08T05:07:55.671Z,10.71
2023-02-08T05:10:22.886Z,10.01
2023-02-08T05:12:50.152Z,11.60
2023-02-08T05:15:20.095Z,12.69
2023-02-08T05:17:47.196Z,11.84
2023-02-08T05:20:15.124Z,11.59
2023-02-08T05:22:45.154Z,12.51
2023-02-08T05:25:12.419Z,12.93
2023-02-08T05:27:39.566Z,11.77
2023-02-08T05:30:07.544Z,9.47
2023-02-08T05:32:37.243Z,9.52
2023-02-08T05:35:04.691Z,9.72
2023-02-08T05:37:31.742Z,10.39
2023-02-08T05:39:59.675Z,10.82
2023-02-08T05:42:27.393Z,9.12
2023-02-08T05:44:54.476Z,10.25
2023-02-08T05:47:22.063Z,11.04
2023-02-08T05:49:51.850Z,12.12
2023-02-08T05:52:19.076Z,10.49
2023-02-08T05:54:46.221Z,12.23
2023-02-08T05:57:13.448Z,12.01
2023-02-08T05:59:40.726Z,12.48
2023-02-08T06:02:08.105Z,12.28
2023-02-08T06:04:37.972Z,12.21
2023-02-08T06:07:06.525Z,11.02
2023-02-08T06:09:33.684Z,12.34
2023-02-08T06:12:15.251Z,12.74
2023-02-08T06:14:42.493Z,12.35
2023-02-08T06:17:09.694Z,12.03
2023-02-08T06:19:36.960Z,11.10
2023-02-08T06:22:04.198Z,11.25
2023-02-08T06:24:31.547Z,10.45
2023-02-08T06:26:58.887Z,10.97
2023-02-08T06:29:26.008Z,11.93
2023-02-08T06:31:53.656Z,9.46
2023-02-08T06:34:21.050Z,11.24
2023-02-08T06:36:48.162Z,10.88
2023-02-08T06:39:15.457Z,10.73
2023-02-08T06:41:42.777Z,10.48
2023-02-08T06:44:10.323Z,10.66
2023-02-08T06:46:37.696Z,11.04
2023-02-08T06:49:05.108Z,11.34
2023-02-08T06:51:34.568Z,11.47
2023-02-08T06:54:01.701Z,12.28
2023-02-08T06:56:28.858Z,12.52
2023-02-08T06:58:57.417Z,12.03
2023-02-08T07:01:27.700Z,12.92
2023-02-08T07:03:55.145Z,12.90
2023-02-08T07:06:22.314Z,12.33
2023-02-08T07:08:49.521Z,11.55
2023-02-08T07:11:20.386Z,12.34
2023-02-08T07:13:52.150Z,11.62
2023-02-08T07:16:20.676Z,12.61
2023-02-08T07:18:48.121Z,9.42
2023-02-08T07:21:15.949Z,12.78
2023-02-08T07:23:43.059Z,12.97
2023-02-08T07:26:14.436Z,13.00
2023-02-08T07:28:42.316Z,12.96
2023-02-08T07:31:18.002Z,11.54
2023-02-08T07:33:45.740Z,11.53
2023-02-08T07:36:13.081Z,10.02
2023-02-08T07:38:40.552Z,11.15
2023-02-08T07:41:13.423Z,12.55
2023-02-08T07:43:42.152Z,12.17
2023-02-08T07:46:21.068Z,14.13
2023-02-08T07:48:52.841Z,16.43
2023-02-08T07:51:22.822Z,16.93
2023-02-08T07:53:51.192Z,13.72
2023-02-08T07:56:20.859Z,16.81
2023-02-08T07:58:50.417Z,17.11
2023-02-08T08:01:22.304Z,18.21
2023-02-08T08:03:51.577Z,18.03
2023-02-08T08:06:23.631Z,16.42
2023-02-08T08:08:54.088Z,15.67
2023-02-08T08:11:22.377Z,17.56
2023-02-08T08:13:50.462Z,18.80
2023-02-08T08:16:18.950Z,15.51
2023-02-08T08:18:49.405Z,16.41
2023-02-08T08:21:16.857Z,18.07
2023-02-08T08:23:44.346Z,18.57
2023-02-08T08:26:19.093Z,17.76
2023-02-08T08:28:47.454Z,17.75
2023-02-08T08:31:19.615Z,18.69
2023-02-08T08:33:47.244Z,18.80
2023-02-08T08:36:14.780Z,16.45
2023-02-08T08:38:42.081Z,17.46
2023-02-08T08:41:18.010Z,18.51
2023-02-08T08:43:48.318Z,16.92
2023-02-08T08:46:16.855Z,18.04
2023-02-08T08:48:44.801Z,19.87
2023-02-08T08:51:12.754Z,19.26
2023-02-08T08:53:40.115Z,16.87
2023-02-08T08:56:07.633Z,20.94
2023-02-08T08:58:35.077Z,19.87
2023-02-08T09:01:02.417Z,20.21
2023-02-08T09:03:29.907Z,20.56
2023-02-08T09:05:59.568Z,20.19
2023-02-08T09:08:26.722Z,22.40
2023-02-08T09:10:54.022Z,20.71
2023-02-08T09:13:21.904Z,22.07
2023-02-08T09:15:49.982Z,23.05
2023-02-08T09:18:17.544Z,20.70
2023-02-08T09:20:44.971Z,20.58
2023-02-08T09:23:14.584Z,21.85
2023-02-08T09:25:42.036Z,21.82
2023-02-08T09:28:09.291Z,20.97
2023-02-08T09:30:36.515Z,21.00
2023-02-08T09:33:03.609Z,20.32
2023-02-08T09:35:30.883Z,20.43
2023-02-08T09:37:58.462Z,21.09
2023-02-08T09:40:33.681Z,21.64
2023-02-08T09:43:19.747Z,23.11
2023-02-08T09:46:15.699Z,22.85
2023-02-08T09:48:47.388Z,21.90
2023-02-08T09:51:35.980Z,22.36
2023-02-08T09:54:37.364Z,21.39
2023-02-08T09:57:12.046Z,19.87
2023-02-08T09:59:53.209Z,20.53
2023-02-08T10:02:34.526Z,21.94
2023-02-08T10:05:12.422Z,23.31
2023-02-08T10:07:42.862Z,22.73
2023-02-08T10:10:30.735Z,22.12
2023-02-08T10:13:25.686Z,21.24
2023-02-08T10:16:11.577Z,20.00
2023-02-08T10:19:14.326Z,22.52
2023-02-08T10:22:04.388Z,20.87
2023-02-08T10:25:39.580Z,23.33
2023-02-08T10:28:21.471Z,26.31
2023-02-08T10:30:57.089Z,26.25
2023-02-08T10:33:37.456Z,18.57
2023-02-08T10:36:16.867Z,23.06
2023-02-08T10:38:46.709Z,23.50
2023-02-08T10:41:23.524Z,20.73
2023-02-08T10:44:04.871Z,25.46
2023-02-08T10:46:55.203Z,25.86
2023-02-08T10:50:00.547Z,23.85
2023-02-08T10:52:28.139Z,24.31
2023-02-08T10:55:00.119Z,27.25
2023-02-08T10:57:35.896Z,27.48
2023-02-08T11:00:12.819Z,26.82
2023-02-08T11:02:43.564Z,25.96
2023-02-08T11:05:17.300Z,26.92
2023-02-08T11:07:44.668Z,24.42
2023-02-08T11:10:22.682Z,25.30
2023-02-08T11:13:20.769Z,25.85
2023-02-08T11:15:57.808Z,26.64
2023-02-08T11:18:48.608Z,26.12
2023-02-08T11:21:42.398Z,25.64
2023-02-08T11:24:15.460Z,28.73
2023-02-08T11:26:43.049Z,24.46
2023-02-08T11:29:17.980Z,26.34
2023-02-08T11:32:19.379Z,27.00
2023-02-08T11:34:48.983Z,24.66
2023-02-08T11:37:26.738Z,26.68
2023-02-08T11:40:02.184Z,27.25
2023-02-08T11:42:47.206Z,25.48
2023-02-08T11:45:30.099Z,24.04
2023-02-08T11:47:57.708Z,23.14
2023-02-08T11:50:33.123Z,24.31
2023-02-08T11:53:04.391Z,25.79
2023-02-08T11:55:34.583Z,23.95
2023-02-08T11:58:13.110Z,21.88
2023-02-08T12:00:41.316Z,24.04
2023-02-08T12:03:25.375Z,17.47
2023-02-08T12:06:07.639Z,17.82
2023-02-08T12:09:03.552Z,18.43
2023-02-08T12:11:42.927Z,20.38
2023-02-08T12:14:39.284Z,23.15
2023-02-08T12:17:34.929Z,21.73
2023-02-08T12:20:26.143Z,21.05
2023-02-08T12:23:15.166Z,20.59
2023-02-08T12:26:04.529Z,17.85
2023-02-08T12:28:53.981Z,19.73
2023-02-08T12:31:54.780Z,21.57
2023-02-08T12:34:49.437Z,19.95
2023-02-08T12:38:04.877Z,18.62
2023-02-08T12:41:12.134Z,18.23
2023-02-08T12:44:27.105Z,19.84
2023-02-08T12:47:34.006Z,20.77
2023-02-08T12:50:09.325Z,16.77
2023-02-08T12:52:48.394Z,19.09
2023-02-08T12:55:35.031Z,19.49
2023-02-08T12:58:30.571Z,14.79
2023-02-08T13:01:09.030Z,15.90
2023-02-08T13:04:09.155Z,17.31
2023-02-08T13:06:49.641Z,18.01
2023-02-08T13:09:35.986Z,16.23
2023-02-08T13:12:14.255Z,15.26
2023-02-08T13:14:48.067Z,17.56
2023-02-08T13:17:23.550Z,14.89
2023-02-08T13:20:01.619Z,14.97
2023-02-08T13:22:40.797Z,14.14
2023-02-08T13:25:34.413Z,14.01
2023-02-08T13:28:11.137Z,15.20
2023-02-08T13:30:40.631Z,12.89
2023-02-08T13:33:18.847Z,12.70
2023-02-08T13:35:53.123Z,12.26
2023-02-08T13:38:35.582Z,11.43
2023-02-08T13:41:18.208Z,13.76
2023-02-08T13:44:04.086Z,12.87
2023-02-08T13:46:44.825Z,12.68
2023-02-08T13:49:54.088Z,10.81
2023-02-08T13:52:46.346Z,12.17
2023-02-08T13:55:33.636Z,13.55
2023-02-08T13:58:06.052Z,13.49
2023-02-08T14:00:37.033Z,11.37
2023-02-08T14:03:21.846Z,11.56
2023-02-08T14:06:22.547Z,12.11
2023-02-08T14:09:13.802Z,11.79
2023-02-08T14:11:43.726Z,11.81
2023-02-08T14:14:24.115Z,11.96
2023-02-08T14:17:21.249Z,11.20
2023-02-08T14:20:06.926Z,11.67
2023-02-08T14:22:48.424Z,11.85
2023-02-08T14:25:16.218Z,10.80
2023-02-08T14:27:52.320Z,10.76
2023-02-08T14:30:19.346Z,10.58
2023-02-08T14:33:12.364Z,11.89
2023-02-08T14:35:59.605Z,12.59
2023-02-08T14:39:10.784Z,11.83
2023-02-08T14:41:48.616Z,12.25
2023-02-08T14:44:43.588Z,11.62
2023-02-08T14:47:24.563Z,11.23
2023-02-08T14:50:24.626Z,10.64
2023-02-08T14:53:27.267Z,10.19
2023-02-08T14:56:24.636Z,12.27
2023-02-08T14:59:12.268Z,12.17
2023-02-08T15:01:50.621Z,10.97
2023-02-08T15:04:20.991Z,11.05
2023-02-08T15:07:17.426Z,10.45
2023-02-08T15:09:46.110Z,9.72
2023-02-08T15:12:32.495Z,10.76
2023-02-08T15:15:05.550Z,9.76
2023-02-08T15:17:41.098Z,9.85
2023-02-08T15:20:27.220Z,11.58
2023-02-08T15:23:18.136Z,10.01
2023-02-08T15:25:54.203Z,10.08
2023-02-08T15:28:25.855Z,9.94
2023-02-08T15:31:09.341Z,10.80
2023-02-08T15:33:44.666Z,12.04
2023-02-08T15:36:29.442Z,12.93
2023-02-08T15:39:11.321Z,11.00
2023-02-08T15:41:38.546Z,13.47
2023-02-08T15:44:28.048Z,12.81
2023-02-08T15:46:57.353Z,11.77
2023-02-08T15:49:39.692Z,11.83
2023-02-08T15:52:08.186Z,11.77
2023-02-08T15:54:35.747Z,11.28
2023-02-08T15:57:18.874Z,10.17
2023-02-08T15:59:48.537Z,9.99
2023-02-08T16:02:32.848Z,11.28
2023-02-08T16:05:02.658Z,9.98
2023-02-08T16:07:39.194Z,10.08
2023-02-08T16:10:10.170Z,11.31
2023-02-08T16:12:37.371Z,10.57
2023-02-08T16:15:05.058Z,9.86
2023-02-08T16:17:43.320Z,9.96
2023-02-08T16:20:33.807Z,11.41
2023-02-08T16:23:23.734Z,10.68
2023-02-08T16:25:51.442Z,9.83
2023-02-08T16:28:33.821Z,10.71
2023-02-08T16:31:05.041Z,9.97
2023-02-08T16:33:34.936Z,10.66
2023-02-08T16:36:02.277Z,9.79
2023-02-08T16:38:32.419Z,10.04
2023-02-08T16:41:12.381Z,9.48
2023-02-08T16:43:47.952Z,10.02
2023-02-08T16:46:25.292Z,10.08
2023-02-08T16:48:57.350Z,10.21
2023-02-08T16:51:28.892Z,11.43
2023-02-08T16:54:07.570Z,10.38
2023-02-08T16:56:39.832Z,10.21
2023-02-08T16:59:08.610Z,10.41
2023-02-08T17:01:36.298Z,10.98
2023-02-08T17:04:04.064Z,11.21
2023-02-08T17:06:36.799Z,11.68
2023-02-08T17:09:06.641Z,11.34
2023-02-08T17:11:33.843Z,9.84
2023-02-08T17:14:01.186Z,9.94
2023-02-08T17:16:31.073Z,8.91
2023-02-08T17:18:59.680Z,9.30
2023-02-08T17:21:29.392Z,8.85
2023-02-08T17:23:57.619Z,8.03
2023-02-08T17:26:40.281Z,9.49
2023-02-08T17:29:08.331Z,8.09
2023-02-08T17:31:35.947Z,8.19
2023-02-08T17:34:06.112Z,9.17
2023-02-08T17:36:36.136Z,9.67
2023-02-08T17:39:05.544Z,8.39
2023-02-08T17:41:32.962Z,9.34
2023-02-08T17:44:00.235Z,7.86
2023-02-08T17:46:30.779Z,9.62
2023-02-08T17:49:01.857Z,9.43
2023-02-08T17:51:29.595Z,8.75
2023-02-08T17:53:57.065Z,8.97
2023-02-08T17:56:31.542Z,8.63
2023-02-08T17:59:00.976Z,9.79
2023-02-08T18:01:28.213Z,8.35
2023-02-08T18:03:55.872Z,9.57
2023-02-08T18:06:25.067Z,9.79
2023-02-08T18:08:54.029Z,9.06
2023-02-08T18:11:23.592Z,9.15
2023-02-08T18:13:53.081Z,7.80
2023-02-08T18:16:24.791Z,9.56
2023-02-08T18:18:55.908Z,8.83
2023-02-08T18:21:27.050Z,8.79
2023-02-08T18:23:55.588Z,8.10
2023-02-08T18:26:25.204Z,8.64
2023-02-08T18:28:53.689Z,8.08
2023-02-08T18:31:21.288Z,9.72
2023-02-08T18:33:51.764Z,8.59
2023-02-08T18:36:20.701Z,8.78
2023-02-08T18:38:51.822Z,9.85
2023-02-08T18:41:23.540Z,9.85
2023-02-08T18:43:51.880Z,10.13
2023-02-08T18:46:22.519Z,8.47
2023-02-08T18:48:51.402Z,8.98
2023-02-08T18:51:20.104Z,8.97
2023-02-08T18:53:55.160Z,8.77
2023-02-08T18:56:25.408Z,10.37
2023-02-08T18:58:54.875Z,10.67
2023-02-08T19:01:24.767Z,9.14
2023-02-08T19:03:52.936Z,8.19
2023-02-08T19:06:26.880Z,9.98
2023-02-08T19:08:55.690Z,9.46
2023-02-08T19:11:34.141Z,8.68
2023-02-08T19:14:04.977Z,8.23
2023-02-08T19:16:35.301Z,10.02
2023-02-08T19:19:04.246Z,9.77
2023-02-08T19:21:34.815Z,10.99
2023-02-08T19:24:02.786Z,10.82
2023-02-08T19:26:35.467Z,9.86
2023-02-08T19:29:06.722Z,10.35
2023-02-08T19:31:35.173Z,9.43
2023-02-08T19:34:04.530Z,8.54
2023-02-08T19:36:32.935Z,9.29
2023-02-08T19:39:04.354Z,9.01
2023-02-08T19:41:38.327Z,9.85
2023-02-08T19:44:08.717Z,8.51
2023-02-08T19:46:38.915Z,9.57
2023-02-08T19:49:07.713Z,10.12
2023-02-08T19:51:38.012Z,8.79
2023-02-08T19:54:10.680Z,10.07
2023-02-08T19:56:38.317Z,9.67
2023-02-08T19:59:08.413Z,9.88
2023-02-08T20:01:36.320Z,10.43
2023-02-08T20:04:06.354Z,9.76
2023-02-08T20:06:37.329Z,9.59
2023-02-08T20:09:06.873Z,10.37
2023-02-08T20:12:00.268Z,8.71
2023-02-08T20:14:32.853Z,10.22
2023-02-08T20:17:02.211Z,9.18
2023-02-08T20:19:29.597Z,9.94
2023-02-08T20:21:56.774Z,8.83
2023-02-08T20:24:24.100Z,9.40
2023-02-08T20:26:51.555Z,10.66
2023-02-08T20:29:19.114Z,9.19
2023-02-08T20:31:49.365Z,9.07
2023-02-08T20:34:19.496Z,10.74
2023-02-08T20:37:06.898Z,11.60
2023-02-08T20:39:36.696Z,10.19
2023-02-08T20:42:04.953Z,8.68
2023-02-08T20:44:32.382Z,8.40
2023-02-08T20:47:00.202Z,8.92
2023-02-08T20:49:27.508Z,9.73
2023-02-08T20:51:57.407Z,8.89
2023-02-08T20:54:25.040Z,7.97
2023-02-08T20:56:53.178Z,9.31
2023-02-08T20:59:23.196Z,8.54
2023-02-08T21:01:50.662Z,7.76
2023-02-08T21:04:20.352Z,7.84
2023-02-08T21:06:47.895Z,7.33
2023-02-08T21:09:18.092Z,8.88
2023-02-08T21:11:47.280Z,8.39
2023-02-08T21:14:19.176Z,8.60
2023-02-08T21:16:55.926Z,9.69
2023-02-08T21:19:24.210Z,9.26
2023-02-08T21:21:54.220Z,9.77
2023-02-08T21:24:23.982Z,9.50
2023-02-08T21:26:53.138Z,8.10
2023-02-08T21:29:21.499Z,9.67
2023-02-08T21:31:52.018Z,10.13
2023-02-08T21:34:22.082Z,8.02
2023-02-08T21:36:51.413Z,10.01
2023-02-08T21:39:18.921Z,9.81
2023-02-08T21:41:49.148Z,9.26
2023-02-08T21:44:18.749Z,10.84
2023-02-08T21:46:46.079Z,9.55
2023-02-08T21:49:32.007Z,9.16
2023-02-08T21:52:17.912Z,9.58
2023-02-08T21:54:45.922Z,11.01
2023-02-08T21:57:19.329Z,9.37
2023-02-08T21:59:49.670Z,9.80
2023-02-08T22:02:28.106Z,10.94
2023-02-08T22:04:58.475Z,9.69
2023-02-08T22:07:27.614Z,10.34
2023-02-08T22:09:56.308Z,11.70
2023-02-08T22:12:23.915Z,11.88
2023-02-08T22:14:51.301Z,11.85
2023-02-08T22:17:18.936Z,11.72
2023-02-08T22:19:46.235Z,11.99
2023-02-08T22:22:13.445Z,12.01
2023-02-08T22:24:42.992Z,11.75
2023-02-08T22:27:10.595Z,11.56
2023-02-08T22:29:37.877Z,11.81
2023-02-08T22:32:06.060Z,11.52
2023-02-08T22:34:33.339Z,10.82
2023-02-08T22:37:03.807Z,11.08
2023-02-08T22:39:35.993Z,10.61
2023-02-08T22:42:08.537Z,9.37
2023-02-08T22:44:36.599Z,9.67
2023-02-08T22:47:15.880Z,10.52
2023-02-08T22:49:43.045Z,8.42
2023-02-08T22:52:11.940Z,8.69
2023-02-08T22:54:39.158Z,8.21
2023-02-08T22:57:09.146Z,11.29
2023-02-08T22:59:40.416Z,9.69
2023-02-08T23:02:12.765Z,9.67
2023-02-08T23:04:42.274Z,8.63
2023-02-08T23:07:09.500Z,8.72
2023-02-08T23:09:36.753Z,7.79
2023-02-08T23:12:11.432Z,6.68
2023-02-08T23:14:38.705Z,7.08
2023-02-08T23:17:05.835Z,7.96
2023-02-08T23:19:33.021Z,8.14
2023-02-08T23:22:00.563Z,8.27
2023-02-08T23:24:28.158Z,7.41
2023-02-08T23:26:55.495Z,8.65
2023-02-08T23:29:22.737Z,9.30
2023-02-08T23:31:49.996Z,10.42
2023-02-08T23:34:18.369Z,10.39
2023-02-08T23:36:48.125Z,9.82
2023-02-08T23:39:15.344Z,9.19
2023-02-08T23:41:42.481Z,7.92
2023-02-08T23:44:09.921Z,9.67
2023-02-08T23:46:37.067Z,7.41
2023-02-08T23:49:06.684Z,8.07
2023-02-08T23:51:33.913Z,8.42
2023-02-08T23:54:01.082Z,8.32
2023-02-08T23:56:32.041Z,8.50
2023-02-08T23:58:59.847Z,7.69
